Time;durP1;ratioP1;P1;durP2;ratioP2;P2;SDS_P1;SDS_P2;PMS_P1;PMS_P2;Temp;Humidity;BMP_temperature;BMP_pressure;BME280_temperature;BME280_humidity;BME280_pressure;Samples;Min_cycle;Max_cycle;Signal;HPM_P1;HPM_P2
2022/04/08 00:02:19;;;;;;;3.63;2.00;;;10.10;99.90;;;;;;5072725;28;20930;-61
2022/04/08 00:04:47;;;;;;;7.50;2.20;;;10.10;99.90;;;;;;5076757;28;20440;-62
2022/04/08 00:07:15;;;;;;;5.63;1.90;;;10.10;99.80;;;;;;5076418;28;20543;-62
2022/04/08 00:09:42;;;;;;;6.13;2.13;;;10.10;99.70;;;;;;5076845;28;20483;-62
2022/04/08 00:12:10;;;;;;;5.83;2.30;;;10.20;99.50;;;;;;5076756;28;20531;-61
2022/04/08 00:14:37;;;;;;;6.10;2.03;;;10.10;99.30;;;;;;5076729;28;20444;-62
2022/04/08 00:17:05;;;;;;;6.03;2.40;;;10.10;99.20;;;;;;5076575;28;20547;-62
2022/04/08 00:19:33;;;;;;;2.60;1.60;;;10.10;99.10;;;;;;5076235;28;20455;-62
2022/04/08 00:22:01;;;;;;;3.73;2.10;;;10.00;99.40;;;;;;5076593;28;20444;-61
2022/04/08 00:24:28;;;;;;;4.70;2.00;;;10.10;99.20;;;;;;5076337;28;20858;-61
2022/04/08 00:26:55;;;;;;;3.87;2.10;;;10.10;99.00;;;;;;5076264;28;20491;-62
2022/04/08 00:29:23;;;;;;;2.97;2.13;;;10.10;99.10;;;;;;5076652;28;20450;-61
2022/04/08 00:31:57;;;;;;;7.23;2.00;;;10.10;98.30;;;;;;5075973;28;20447;-62
2022/04/08 00:34:25;;;;;;;4.40;2.20;;;10.10;98.30;;;;;;5076180;28;20800;-62
2022/04/08 00:36:53;;;;;;;5.90;2.23;;;10.10;98.30;;;;;;5075901;28;21010;-62
2022/04/08 00:39:22;;;;;;;3.73;1.90;;;10.10;97.70;;;;;;5076189;28;20821;-62
2022/04/08 00:41:49;;;;;;;5.03;2.27;;;10.00;98.20;;;;;;5075762;28;20448;-62
2022/04/08 00:44:16;;;;;;;6.73;2.23;;;10.10;98.10;;;;;;5075897;28;20539;-62
2022/04/08 00:46:44;;;;;;;4.03;2.30;;;10.10;98.20;;;;;;5075903;28;20924;-62
2022/04/08 00:49:11;;;;;;;2.90;1.80;;;10.20;98.30;;;;;;5075917;28;20469;-63
2022/04/08 00:51:40;;;;;;;7.00;2.63;;;10.10;98.30;;;;;;5075867;28;20543;-62
2022/04/08 00:54:08;;;;;;;4.47;2.10;;;10.00;98.30;;;;;;5075666;28;20945;-62
2022/04/08 00:56:37;;;;;;;4.03;1.60;;;10.10;98.50;;;;;;5075982;28;20456;-62
2022/04/08 00:59:05;;;;;;;3.50;1.90;;;10.00;98.40;;;;;;5075348;28;21041;-61
2022/04/08 01:01:32;;;;;;;7.00;2.27;;;10.00;98.60;;;;;;5075907;28;20515;-62
2022/04/08 01:03:59;;;;;;;6.60;2.17;;;10.00;98.90;;;;;;5075601;28;20455;-62
2022/04/08 01:06:27;;;;;;;3.80;2.10;;;10.00;98.80;;;;;;5075434;28;20450;-62
2022/04/08 01:08:55;;;;;;;5.20;1.93;;;10.00;98.90;;;;;;5075562;28;20457;-62
2022/04/08 01:11:23;;;;;;;4.23;2.90;;;9.90;99.50;;;;;;5075718;28;20448;-62
2022/04/08 01:13:52;;;;;;;6.30;2.37;;;9.90;99.40;;;;;;5075543;28;20444;-62
2022/04/08 01:16:20;;;;;;;10.67;2.47;;;9.90;99.50;;;;;;5075728;28;20454;-62
2022/04/08 01:18:47;;;;;;;7.57;2.63;;;9.90;99.50;;;;;;5075430;28;20484;-62
2022/04/08 01:21:14;;;;;;;4.53;2.37;;;9.80;99.10;;;;;;5075509;28;20554;-62
2022/04/08 01:23:47;;;;;;;6.07;2.57;;;9.80;99.20;;;;;;5075175;28;20543;-62
2022/04/08 01:26:16;;;;;;;6.07;2.10;;;9.80;99.40;;;;;;5075045;28;20456;-62
2022/04/08 01:28:45;;;;;;;4.40;1.80;;;9.80;99.80;;;;;;5074743;28;20487;-62
2022/04/08 01:31:12;;;;;;;4.37;2.30;;;9.80;99.70;;;;;;5074771;28;20505;-62
2022/04/08 01:33:39;;;;;;;4.93;2.40;;;9.80;99.00;;;;;;5074853;28;20531;-62
2022/04/08 01:36:07;;;;;;;3.83;2.00;;;9.80;99.10;;;;;;5074977;28;20455;-62
2022/04/08 01:38:34;;;;;;;6.70;1.87;;;9.80;98.80;;;;;;5074508;28;20563;-62
2022/04/08 01:41:01;;;;;;;3.77;2.90;;;9.80;98.90;;;;;;5075035;28;20802;-62
2022/04/08 01:43:30;;;;;;;3.97;1.80;;;9.80;99.00;;;;;;5074760;28;20444;-62
2022/04/08 01:45:57;;;;;;;4.13;2.30;;;9.80;99.00;;;;;;5074840;28;20445;-63
2022/04/08 01:48:24;;;;;;;3.07;2.00;;;9.70;99.10;;;;;;5074879;28;20471;-62
2022/04/08 01:50:51;;;;;;;4.80;2.27;;;9.70;99.30;;;;;;5074847;28;20450;-62
2022/04/08 01:53:18;;;;;;;5.80;2.10;;;9.60;99.30;;;;;;5074760;28;20444;-61
2022/04/08 01:55:50;;;;;;;4.47;2.00;;;9.60;99.60;;;;;;5074879;28;20873;-62
2022/04/08 01:58:17;;;;;;;7.43;2.50;;;9.60;99.60;;;;;;5074603;28;20934;-61
2022/04/08 02:00:45;;;;;;;5.70;2.20;;;9.60;99.80;;;;;;5074251;28;20931;-61
2022/04/08 02:03:12;;;;;;;4.33;2.00;;;9.60;99.90;;;;;;5074669;28;20454;-61
2022/04/08 02:05:40;;;;;;;3.17;1.80;;;9.60;99.90;;;;;;5074282;28;20444;-61
2022/04/08 02:08:07;;;;;;;5.80;2.87;;;9.50;99.90;;;;;;5074358;28;20464;-61
2022/04/08 02:10:34;;;;;;;4.37;2.27;;;9.50;99.90;;;;;;5074036;28;20448;-61
2022/04/08 02:13:01;;;;;;;5.60;2.37;;;9.50;99.90;;;;;;5074545;28;20471;-62
2022/04/08 02:15:33;;;;;;;3.47;2.43;;;9.50;99.90;;;;;;5073938;28;20484;-62
2022/04/08 02:18:02;;;;;;;4.20;2.30;;;9.50;99.90;;;;;;5074230;28;20484;-62
2022/04/08 02:20:31;;;;;;;3.57;2.37;;;9.50;99.60;;;;;;5074049;28;20450;-62
2022/04/08 02:22:59;;;;;;;7.70;2.07;;;9.50;99.50;;;;;;5073897;28;20448;-61
2022/04/08 02:25:26;;;;;;;4.40;2.17;;;9.40;99.50;;;;;;5073634;28;20460;-61
2022/04/08 02:27:54;;;;;;;5.17;2.53;;;9.50;99.40;;;;;;5073492;28;20488;-61
2022/04/08 02:30:21;;;;;;;3.17;1.77;;;9.50;99.70;;;;;;5074244;28;20450;-61
2022/04/08 02:32:49;;;;;;;3.50;1.80;;;9.50;99.60;;;;;;5073955;28;20490;-61
2022/04/08 02:35:17;;;;;;;2.53;1.70;;;9.40;99.70;;;;;;5073636;28;20452;-62
2022/04/08 02:37:44;;;;;;;3.10;2.27;;;9.40;99.80;;;;;;5073563;28;20473;-62
2022/04/08 02:40:12;;;;;;;4.47;2.27;;;9.30;99.90;;;;;;5073513;28;20444;-62
2022/04/08 02:42:40;;;;;;;3.53;2.00;;;9.30;99.90;;;;;;5073784;28;20453;-62
2022/04/08 02:45:08;;;;;;;3.60;2.40;;;9.30;99.90;;;;;;5073952;28;20453;-62
2022/04/08 02:47:41;;;;;;;3.70;2.27;;;9.40;99.90;;;;;;5073444;28;20468;-61
2022/04/08 02:50:09;;;;;;;4.87;2.43;;;9.30;99.90;;;;;;5073845;28;20429;-61
2022/04/08 02:52:38;;;;;;;3.03;1.70;;;9.30;99.90;;;;;;5073442;28;20448;-61
2022/04/08 02:55:07;;;;;;;4.07;1.90;;;9.20;99.90;;;;;;5073811;28;20452;-62
2022/04/08 02:57:44;;;;;;;3.93;2.10;;;9.30;99.90;;;;;;5073269;28;21017;-61
2022/04/08 03:00:13;;;;;;;3.23;2.30;;;9.30;99.90;;;;;;5073650;28;20413;-61
2022/04/08 03:02:40;;;;;;;2.50;1.97;;;9.30;99.90;;;;;;5073893;28;20536;-61
2022/04/08 03:05:09;;;;;;;5.27;1.90;;;9.20;99.90;;;;;;5073251;28;20883;-61
2022/04/08 03:07:37;;;;;;;4.50;2.27;;;9.20;99.90;;;;;;5073434;28;20848;-61
2022/04/08 03:10:06;;;;;;;3.80;2.20;;;9.20;99.90;;;;;;5073463;28;20780;-62
2022/04/08 03:12:33;;;;;;;1.97;1.70;;;9.20;99.90;;;;;;5073841;28;20523;-62
2022/04/08 03:15:01;;;;;;;6.90;2.57;;;9.20;99.90;;;;;;5073075;28;20957;-61
2022/04/08 03:17:28;;;;;;;6.30;2.10;;;9.20;99.90;;;;;;5073129;28;21053;-61
2022/04/08 03:19:57;;;;;;;5.97;2.10;;;9.30;99.90;;;;;;5073472;28;21053;-61
2022/04/08 03:22:25;;;;;;;6.43;2.03;;;9.30;99.90;;;;;;5073339;28;20497;-62
2022/04/08 03:24:54;;;;;;;7.60;1.93;;;9.30;99.90;;;;;;5073429;28;20455;-62
2022/04/08 03:27:21;;;;;;;3.90;2.40;;;9.30;99.90;;;;;;5073165;28;20484;-62
2022/04/08 03:29:49;;;;;;;4.93;2.37;;;9.30;99.90;;;;;;5073254;28;20440;-61
2022/04/08 03:32:16;;;;;;;9.43;2.70;;;9.20;99.90;;;;;;5072896;28;20460;-62
2022/04/08 03:34:44;;;;;;;5.00;1.93;;;9.20;99.90;;;;;;5072997;28;20998;-62
2022/04/08 03:37:11;;;;;;;4.53;2.07;;;9.20;99.90;;;;;;5072748;28;20453;-62
2022/04/08 03:39:38;;;;;;;2.40;1.83;;;9.10;99.90;;;;;;5076680;28;20484;-62
2022/04/08 03:42:07;;;;;;;4.97;2.30;;;9.20;99.90;;;;;;5077382;28;20448;-62
2022/04/08 03:44:34;;;;;;;3.30;2.00;;;9.20;99.80;;;;;;5077292;28;20809;-62
2022/04/08 03:47:01;;;;;;;5.63;2.80;;;9.10;99.40;;;;;;5077070;28;20807;-62
2022/04/08 03:49:32;;;;;;;6.20;2.30;;;9.10;99.40;;;;;;5076776;28;20456;-62
2022/04/08 03:52:00;;;;;;;7.43;3.20;;;9.00;99.30;;;;;;5077208;28;20424;-62
2022/04/08 03:54:27;;;;;;;3.47;2.60;;;9.00;99.20;;;;;;5077104;28;20440;-62
2022/04/08 03:56:55;;;;;;;3.53;2.13;;;9.00;99.50;;;;;;5077065;28;20543;-62
2022/04/08 03:59:24;;;;;;;5.60;2.10;;;9.00;99.30;;;;;;5076983;28;20483;-61
2022/04/08 04:01:51;;;;;;;6.13;2.00;;;9.10;99.10;;;;;;5076571;28;20444;-62
2022/04/08 04:04:19;;;;;;;3.80;1.90;;;9.10;98.90;;;;;;5076420;28;20451;-62
2022/04/08 04:06:46;;;;;;;4.30;2.17;;;9.00;98.60;;;;;;5076708;28;20821;-61
2022/04/08 04:09:13;;;;;;;3.60;2.03;;;9.00;98.60;;;;;;5076644;28;20470;-62
2022/04/08 04:11:40;;;;;;;2.50;1.93;;;9.10;98.60;;;;;;5076643;28;20818;-63
2022/04/08 04:14:07;;;;;;;10.30;3.57;;;9.00;97.90;;;;;;5076541;28;20871;-63
2022/04/08 04:16:36;;;;;;;3.40;2.10;;;9.10;98.10;;;;;;5076539;28;20448;-63
2022/04/08 04:19:03;;;;;;;2.23;2.03;;;9.00;97.90;;;;;;5076040;28;20480;-62
2022/04/08 04:21:30;;;;;;;5.13;2.10;;;9.00;97.90;;;;;;5076624;28;20477;-62
2022/04/08 04:23:57;;;;;;;7.83;2.13;;;8.90;98.30;;;;;;5076427;28;20809;-62
2022/04/08 04:26:24;;;;;;;5.43;2.87;;;8.90;98.10;;;;;;5075996;28;20456;-63
2022/04/08 04:28:51;;;;;;;3.00;2.03;;;8.90;98.00;;;;;;5076391;28;20509;-61
2022/04/08 04:31:19;;;;;;;5.97;2.47;;;8.80;98.20;;;;;;5076123;28;20451;-61
2022/04/08 04:33:47;;;;;;;17.77;3.10;;;8.90;98.40;;;;;;5076226;28;20468;-62
2022/04/08 04:36:15;;;;;;;5.07;2.10;;;8.80;98.30;;;;;;5076152;28;20455;-61
2022/04/08 04:38:42;;;;;;;3.97;2.67;;;8.80;98.60;;;;;;5076171;28;20534;-61
2022/04/08 04:41:09;;;;;;;3.80;2.37;;;8.90;98.90;;;;;;5076136;28;20450;-62
2022/04/08 04:43:36;;;;;;;3.50;2.10;;;8.90;98.80;;;;;;5075932;28;20448;-63
2022/04/08 04:46:04;;;;;;;9.17;2.77;;;8.80;98.70;;;;;;5076281;28;20444;-62
2022/04/08 04:48:31;;;;;;;4.60;2.00;;;8.80;98.90;;;;;;5075455;28;20464;-62
2022/04/08 04:51:00;;;;;;;4.67;2.70;;;8.90;99.10;;;;;;5075885;28;20497;-62
2022/04/08 04:53:27;;;;;;;5.60;2.60;;;8.90;99.10;;;;;;5075791;28;20804;-62
2022/04/08 04:55:56;;;;;;;7.77;4.10;;;9.00;98.80;;;;;;5075777;28;20935;-62
2022/04/08 04:58:23;;;;;;;5.83;2.07;;;9.10;99.30;;;;;;5075631;28;20559;-62
2022/04/08 05:00:50;;;;;;;4.80;2.10;;;9.10;99.20;;;;;;5075850;28;20448;-62
2022/04/08 05:03:17;;;;;;;10.67;2.33;;;9.20;98.90;;;;;;5075292;28;20931;-62
2022/04/08 05:05:45;;;;;;;5.83;2.90;;;9.20;99.40;;;;;;5075501;28;20451;-62
2022/04/08 05:08:13;;;;;;;5.90;2.27;;;9.20;98.90;;;;;;5075588;28;20475;-62
2022/04/08 05:10:42;;;;;;;7.83;2.47;;;9.20;99.00;;;;;;5075199;28;20922;-62
2022/04/08 05:13:09;;;;;;;6.10;2.37;;;9.20;99.00;;;;;;5075066;28;20449;-64
2022/04/08 05:15:38;;;;;;;4.93;2.00;;;9.20;99.20;;;;;;5075623;28;20540;-63
2022/04/08 05:18:06;;;;;;;5.93;2.13;;;9.30;99.10;;;;;;5075501;28;20504;-62
2022/04/08 05:20:33;;;;;;;3.67;1.90;;;9.30;99.70;;;;;;5074892;28;20491;-62
2022/04/08 05:23:00;;;;;;;3.10;2.03;;;9.30;99.90;;;;;;5074932;28;20985;-63
2022/04/08 05:25:29;;;;;;;5.20;1.90;;;9.30;99.60;;;;;;5075014;28;20480;-62
2022/04/08 05:27:56;;;;;;;4.47;2.13;;;9.30;99.20;;;;;;5074447;28;20489;-62
2022/04/08 05:30:23;;;;;;;5.00;2.20;;;9.30;99.60;;;;;;5075122;28;20544;-61
2022/04/08 05:32:51;;;;;;;5.00;2.13;;;9.20;99.10;;;;;;5075090;28;20470;-62
2022/04/08 05:35:19;;;;;;;5.87;2.10;;;9.20;99.80;;;;;;5074672;28;20445;-62
2022/04/08 05:37:47;;;;;;;8.97;2.50;;;9.10;99.50;;;;;;5074275;28;20837;-62
2022/04/08 05:40:16;;;;;;;4.80;2.53;;;9.30;99.80;;;;;;5074935;28;20544;-62
2022/04/08 05:42:46;;;;;;;3.60;1.80;;;9.20;99.50;;;;;;5074672;28;20466;-62
2022/04/08 05:45:14;;;;;;;5.37;2.40;;;9.20;99.90;;;;;;5074488;28;20488;-62
2022/04/08 05:47:41;;;;;;;5.90;2.33;;;9.30;99.80;;;;;;5074414;28;20525;-62
2022/04/08 05:50:11;;;;;;;7.07;2.00;;;9.40;99.50;;;;;;5074330;28;20451;-62
2022/04/08 05:52:38;;;;;;;8.13;2.57;;;9.30;99.70;;;;;;5074331;28;20457;-61
2022/04/08 05:55:06;;;;;;;7.07;2.13;;;9.30;99.90;;;;;;5074376;28;20456;-62
2022/04/08 05:57:36;;;;;;;4.87;2.13;;;9.40;99.90;;;;;;5074671;28;20504;-62
2022/04/08 06:00:06;;;;;;;6.80;2.60;;;9.20;99.90;;;;;;5073746;28;20480;-62
2022/04/08 06:02:33;;;;;;;7.43;3.07;;;9.20;99.90;;;;;;5073520;28;20743;-61
2022/04/08 06:05:00;;;;;;;4.60;2.10;;;9.30;99.90;;;;;;5074475;28;20807;-62
2022/04/08 06:07:28;;;;;;;3.30;2.57;;;9.30;99.90;;;;;;5073974;28;20576;-62
2022/04/08 06:09:56;;;;;;;7.87;3.63;;;9.40;99.90;;;;;;5074138;28;20440;-61
2022/04/08 06:12:23;;;;;;;7.50;2.73;;;9.30;99.90;;;;;;5074262;28;20569;-62
2022/04/08 06:14:51;;;;;;;6.20;2.17;;;9.20;99.90;;;;;;5074508;28;20840;-64
2022/04/08 06:17:19;;;;;;;5.20;2.30;;;9.20;99.90;;;;;;5074222;28;20475;-63
2022/04/08 06:19:49;;;;;;;5.10;2.80;;;9.20;99.90;;;;;;5074022;28;20487;-62
2022/04/08 06:22:16;;;;;;;3.17;2.10;;;9.10;99.90;;;;;;5073991;28;20479;-62
2022/04/08 06:24:43;;;;;;;6.57;2.43;;;9.10;99.90;;;;;;5073563;28;20444;-61
2022/04/08 06:27:10;;;;;;;3.20;1.93;;;9.10;99.90;;;;;;5073601;28;20484;-62
2022/04/08 06:29:37;;;;;;;5.67;2.00;;;9.10;99.90;;;;;;5073800;28;20447;-62
2022/04/08 06:32:05;;;;;;;4.53;2.43;;;9.20;99.90;;;;;;5073378;28;20448;-63
2022/04/08 06:34:34;;;;;;;5.10;2.23;;;9.10;99.90;;;;;;5073488;28;20468;-62
2022/04/08 06:37:01;;;;;;;5.77;1.90;;;9.00;99.90;;;;;;5073688;28;20499;-61
2022/04/08 06:39:28;;;;;;;7.80;2.00;;;8.90;99.90;;;;;;5073171;28;20510;-61
2022/04/08 06:41:55;;;;;;;4.50;2.33;;;9.10;99.90;;;;;;5073526;28;20926;-63
2022/04/08 06:44:22;;;;;;;8.00;2.20;;;9.10;99.90;;;;;;5073456;28;20444;-62
2022/04/08 06:46:49;;;;;;;8.43;2.60;;;9.00;99.90;;;;;;5073591;28;20528;-62
2022/04/08 06:49:19;;;;;;;3.47;1.90;;;8.90;99.90;;;;;;5073185;28;20441;-62
2022/04/08 06:51:48;;;;;;;4.20;1.80;;;9.10;99.90;;;;;;5073512;28;20860;-61
2022/04/08 06:54:15;;;;;;;5.33;2.20;;;9.20;99.90;;;;;;5072722;28;20459;-62
2022/04/08 06:56:42;;;;;;;8.10;1.97;;;9.10;99.90;;;;;;5073040;28;20923;-61
2022/04/08 06:59:09;;;;;;;5.53;2.00;;;9.20;99.90;;;;;;5072919;28;20960;-61
2022/04/08 07:01:37;;;;;;;2.83;1.80;;;9.10;99.90;;;;;;5073303;28;20452;-60
2022/04/08 07:04:05;;;;;;;2.20;1.90;;;8.90;99.90;;;;;;5072960;28;20544;-61
2022/04/08 07:06:32;;;;;;;3.27;2.00;;;8.80;99.90;;;;;;5073025;28;20459;-62
2022/04/08 07:09:00;;;;;;;8.43;2.33;;;8.60;99.90;;;;;;5073463;28;20464;-61
2022/04/08 07:11:28;;;;;;;2.07;1.87;;;8.50;99.90;;;;;;5072853;28;20543;-61
2022/04/08 07:13:55;;;;;;;6.33;2.30;;;8.40;99.90;;;;;;5073459;28;20976;-62
2022/04/08 07:16:23;;;;;;;5.00;2.30;;;8.20;99.90;;;;;;5073266;28;20459;-61
2022/04/08 07:18:50;;;;;;;6.90;2.10;;;8.20;99.90;;;;;;5072745;28;20551;-61
2022/04/08 07:21:18;;;;;;;5.30;2.20;;;;;;;;;;5072931;28;20490;-61
2022/04/08 07:23:45;;;;;;;6.13;2.10;;;8.20;99.90;;;;;;5072837;28;20452;-61
2022/04/08 07:26:13;;;;;;;4.33;2.00;;;8.30;99.90;;;;;;5072678;28;20542;-61
2022/04/08 07:28:40;;;;;;;4.40;1.90;;;8.10;99.90;;;;;;5072678;28;20976;-61
2022/04/08 07:31:08;;;;;;;4.40;2.60;;;8.00;99.90;;;;;;5073032;28;20531;-61
2022/04/08 07:33:35;;;;;;;7.37;2.87;;;7.90;99.90;;;;;;5072522;28;20465;-60
2022/04/08 07:36:03;;;;;;;4.50;2.73;;;7.90;99.90;;;;;;5072580;28;20849;-61
2022/04/08 07:38:30;;;;;;;2.20;2.00;;;8.00;99.90;;;;;;5073117;28;20475;-61
2022/04/08 07:40:58;;;;;;;2.97;2.20;;;8.00;99.90;;;;;;5072957;28;20488;-60
2022/04/08 07:43:27;;;;;;;4.30;2.40;;;8.00;99.90;;;;;;5072447;28;20949;-60
2022/04/08 07:45:54;;;;;;;1.77;1.67;;;7.90;99.90;;;;;;5072852;28;20788;-60
2022/04/08 07:48:22;;;;;;;2.20;2.00;;;8.00;99.90;;;;;;5072569;28;20468;-61
2022/04/08 07:50:49;;;;;;;2.93;2.10;;;8.20;99.90;;;;;;5072936;28;20440;-61
2022/04/08 07:53:16;;;;;;;2.83;1.70;;;8.30;99.90;;;;;;5072713;28;20491;-61
2022/04/08 07:55:44;;;;;;;2.30;2.17;;;8.30;99.90;;;;;;5073116;28;20456;-60
2022/04/08 07:58:11;;;;;;;2.97;2.57;;;8.50;99.90;;;;;;5072950;28;20995;-61
2022/04/08 08:00:39;;;;;;;2.73;2.00;;;8.50;99.90;;;;;;5072746;28;20994;-60
2022/04/08 08:03:06;;;;;;;2.67;2.00;;;8.50;99.90;;;;;;5072668;28;20483;-60
2022/04/08 08:05:34;;;;;;;4.70;2.30;;;8.40;99.90;;;;;;5072415;28;20943;-60
2022/04/08 08:08:02;;;;;;;4.03;2.20;;;8.60;99.90;;;;;;5072338;28;20478;-61
2022/04/08 08:10:31;;;;;;;6.97;2.03;;;8.80;99.90;;;;;;5072472;28;20526;-60
2022/04/08 08:13:00;;;;;;;2.00;1.80;;;8.70;99.90;;;;;;5072743;28;20535;-61
2022/04/08 08:15:27;;;;;;;5.90;1.90;;;8.60;99.90;;;;;;5072656;28;20497;-60
2022/04/08 08:17:59;;;;;;;4.00;1.80;;;8.60;99.90;;;;;;5072838;28;20464;-61
2022/04/08 08:20:27;;;;;;;2.73;1.80;;;8.70;99.90;;;;;;5072388;28;21070;-60
2022/04/08 08:22:54;;;;;;;3.20;1.87;;;8.80;99.90;;;;;;5072274;28;20443;-60
2022/04/08 08:25:22;;;;;;;2.33;1.70;;;8.80;99.90;;;;;;5074960;28;20495;-60
2022/04/08 08:27:54;;;;;;;1.67;1.47;;;8.90;99.90;;;;;;5076062;28;20480;-61
2022/04/08 08:30:22;;;;;;;1.77;1.43;;;8.60;99.90;;;;;;5076445;28;20424;-60
2022/04/08 08:32:50;;;;;;;1.73;1.57;;;8.30;99.90;;;;;;5075955;28;20534;-60
2022/04/08 08:35:20;;;;;;;2.23;1.93;;;8.50;99.90;;;;;;5075869;28;20486;-61
2022/04/08 08:37:48;;;;;;;2.10;1.90;;;8.60;99.90;;;;;;5076171;28;20508;-60
2022/04/08 08:40:16;;;;;;;6.20;3.03;;;8.50;99.90;;;;;;5075875;28;20475;-61
2022/04/08 08:42:44;;;;;;;1.97;1.70;;;8.50;99.90;;;;;;5075833;28;20454;-61
2022/04/08 08:45:13;;;;;;;3.83;1.80;;;8.40;99.90;;;;;;5075783;28;20447;-61
2022/04/08 08:47:40;;;;;;;2.20;2.00;;;8.50;99.90;;;;;;5075528;28;20479;-60
2022/04/08 08:50:08;;;;;;;2.47;1.80;;;8.50;99.90;;;;;;5075758;28;20448;-61
2022/04/08 08:52:37;;;;;;;1.80;1.70;;;8.60;99.90;;;;;;5075231;28;20445;-61
2022/04/08 08:55:05;;;;;;;2.00;1.50;;;8.70;99.90;;;;;;5075672;28;20464;-61
2022/04/08 08:57:35;;;;;;;1.90;1.80;;;8.80;99.90;;;;;;5075503;28;20468;-60
2022/04/08 09:00:12;;;;;;;1.83;1.60;;;8.50;99.90;;;;;;5075855;28;20480;-60
2022/04/08 09:02:40;;;;;;;4.30;2.47;;;8.50;99.90;;;;;;5075371;28;20477;-62
2022/04/08 09:05:14;;;;;;;1.97;1.70;;;8.80;99.90;;;;;;5065347;28;21023;-57
2022/04/08 09:07:43;;;;;;;2.60;1.80;;;8.70;99.90;;;;;;5057597;28;20907;-55
2022/04/08 09:10:10;;;;;;;4.40;1.90;;;8.90;99.90;;;;;;5065904;28;20437;-59
2022/04/08 09:12:38;;;;;;;2.90;2.07;;;8.90;99.90;;;;;;5075127;28;20930;-58
2022/04/08 09:15:06;;;;;;;2.47;1.87;;;8.90;99.90;;;;;;5054271;28;20455;-58
2022/04/08 09:17:33;;;;;;;5.73;2.10;;;9.00;99.90;;;;;;5063048;28;21040;-59
2022/04/08 09:20:01;;;;;;;2.80;1.63;;;8.80;99.90;;;;;;5074028;28;20440;-60
2022/04/08 09:22:32;;;;;;;4.23;1.70;;;8.80;99.90;;;;;;5073389;28;20448;-59
2022/04/08 09:25:09;;;;;;;2.40;2.07;;;8.60;99.90;;;;;;5073723;28;20460;-59
2022/04/08 09:27:38;;;;;;;2.27;1.37;;;8.70;99.90;;;;;;5072190;28;20476;-59
2022/04/08 09:30:07;;;;;;;1.80;1.70;;;8.60;99.90;;;;;;5073173;28;20539;-59
2022/04/08 09:32:35;;;;;;;1.87;1.70;;;8.70;99.90;;;;;;5073332;28;20455;-59
2022/04/08 09:35:03;;;;;;;1.93;1.80;;;8.60;99.90;;;;;;5073807;28;20451;-59
2022/04/08 09:37:30;;;;;;;1.63;1.53;;;8.50;99.90;;;;;;5074758;28;20475;-58
2022/04/08 09:39:58;;;;;;;2.67;1.80;;;8.60;99.90;;;;;;5074394;28;20455;-59
2022/04/08 09:42:42;;;;;;;1.63;1.50;;;8.30;99.90;;;;;;5074676;28;20447;-59
2022/04/08 09:45:10;;;;;;;4.10;1.80;;;8.40;99.90;;;;;;5061099;28;20940;-58
2022/04/08 09:47:37;;;;;;;2.07;1.77;;;8.50;99.90;;;;;;5054939;28;20485;-58
2022/04/08 09:50:05;;;;;;;2.67;2.20;;;8.60;99.90;;;;;;5052750;28;20480;-58
2022/04/08 09:52:33;;;;;;;5.00;2.10;;;8.40;99.90;;;;;;5050975;28;20441;-59
2022/04/08 09:55:04;;;;;;;2.57;2.00;;;8.40;99.90;;;;;;5051947;28;21053;-59
2022/04/08 09:57:37;;;;;;;1.57;1.47;;;8.50;99.90;;;;;;5052141;28;20501;-58
2022/04/08 10:00:06;;;;;;;1.80;1.70;;;8.50;99.90;;;;;;5052031;28;20429;-59
2022/04/08 10:02:36;;;;;;;1.80;1.70;;;8.40;99.90;;;;;;5052178;28;20806;-58
2022/04/08 10:05:03;;;;;;;2.10;1.73;;;8.20;99.90;;;;;;5053209;28;20452;-58
2022/04/08 10:07:31;;;;;;;2.07;1.80;;;8.30;99.90;;;;;;5053800;28;20461;-58
2022/04/08 10:10:05;;;;;;;1.70;1.60;;;8.60;99.90;;;;;;5054317;28;20445;-58
2022/04/08 10:12:44;;;;;;;2.27;1.43;;;8.50;99.90;;;;;;5054070;28;20499;-58
2022/04/08 10:15:21;;;;;;;1.57;1.47;;;8.50;99.90;;;;;;5052951;28;20893;-60
2022/04/08 10:17:57;;;;;;;4.83;1.60;;;8.40;99.90;;;;;;5053819;28;20472;-59
2022/04/08 10:20:26;;;;;;;1.43;1.33;;;8.40;99.90;;;;;;5054158;28;20556;-59
2022/04/08 10:23:03;;;;;;;2.03;1.70;;;8.50;99.90;;;;;;5054025;28;20460;-59
2022/04/08 10:25:37;;;;;;;1.50;1.40;;;8.60;99.90;;;;;;5054010;28;21017;-59
2022/04/08 10:28:07;;;;;;;2.40;1.43;;;8.70;99.90;;;;;;5053745;28;20499;-59
2022/04/08 10:30:45;;;;;;;3.17;1.70;;;8.70;99.90;;;;;;5053796;28;20428;-59
2022/04/08 10:33:13;;;;;;;2.80;1.77;;;8.80;99.90;;;;;;5053682;28;20453;-58
2022/04/08 10:35:52;;;;;;;2.70;1.80;;;8.80;99.90;;;;;;5053459;28;20796;-59
2022/04/08 10:38:19;;;;;;;1.43;1.33;;;8.90;99.90;;;;;;5053564;28;20476;-59
2022/04/08 10:40:54;;;;;;;6.60;1.40;;;8.90;99.90;;;;;;5056913;28;20484;-59
2022/04/08 10:43:23;;;;;;;1.40;1.30;;;8.90;99.90;;;;;;5051527;28;20460;-59
2022/04/08 10:45:56;;;;;;;1.87;1.33;;;8.90;99.90;;;;;;5051540;28;20449;-59
2022/04/08 10:48:23;;;;;;;2.50;1.53;;;9.00;99.90;;;;;;5051176;28;20833;-59
2022/04/08 10:50:51;;;;;;;1.20;1.10;;;8.90;99.90;;;;;;5051406;28;20441;-59
2022/04/08 10:53:22;;;;;;;1.50;1.40;;;8.90;99.90;;;;;;5051472;28;21098;-59
2022/04/08 10:55:51;;;;;;;1.93;1.30;;;8.90;99.90;;;;;;5051592;28;20457;-59
2022/04/08 10:58:32;;;;;;;1.70;1.30;;;8.70;99.90;;;;;;5051971;28;20464;-59
2022/04/08 11:00:59;;;;;;;1.40;1.30;;;8.60;99.90;;;;;;5051859;28;20573;-58
2022/04/08 11:03:28;;;;;;;2.33;1.37;;;8.20;99.90;;;;;;5052566;28;20537;-59
2022/04/08 11:05:55;;;;;;;1.50;1.40;;;8.40;99.90;;;;;;5052490;28;20445;-59
2022/04/08 11:08:25;;;;;;;2.07;1.40;;;8.50;99.90;;;;;;5052353;28;20556;-59
2022/04/08 11:10:58;;;;;;;2.10;1.90;;;8.40;99.90;;;;;;5052598;28;20545;-59
2022/04/08 11:13:26;;;;;;;2.40;1.50;;;8.50;99.90;;;;;;5052743;28;20536;-60
2022/04/08 11:15:55;;;;;;;1.77;1.67;;;8.20;99.90;;;;;;5052759;28;20457;-60
2022/04/08 11:18:25;;;;;;;1.97;1.63;;;8.40;99.90;;;;;;5052421;28;20473;-59
2022/04/08 11:20:52;;;;;;;1.77;1.67;;;8.20;99.90;;;;;;5052484;28;20560;-60
2022/04/08 11:23:26;;;;;;;1.50;1.40;;;8.10;99.90;;;;;;5052753;28;20502;-59
2022/04/08 11:25:54;;;;;;;1.53;1.43;;;8.10;99.90;;;;;;5052709;28;20935;-58
2022/04/08 11:28:23;;;;;;;1.97;1.50;;;8.10;99.90;;;;;;5052562;28;20543;-60
2022/04/08 11:30:57;;;;;;;2.90;1.90;;;8.10;99.90;;;;;;5052921;28;20515;-58
2022/04/08 11:33:25;;;;;;;1.83;1.73;;;8.20;99.90;;;;;;5052916;28;20433;-60
2022/04/08 11:35:57;;;;;;;2.17;1.83;;;8.10;99.90;;;;;;5052226;28;20451;-61
2022/04/08 11:38:25;;;;;;;2.00;1.90;;;8.30;99.90;;;;;;5052584;28;20469;-61
2022/04/08 11:40:53;;;;;;;3.00;1.90;;;8.40;99.90;;;;;;5052967;28;20489;-62
2022/04/08 11:43:21;;;;;;;2.10;1.90;;;8.30;99.90;;;;;;5050344;28;20446;-60
2022/04/08 11:45:50;;;;;;;1.97;1.80;;;8.10;99.90;;;;;;5062934;28;20449;-59
2022/04/08 11:48:20;;;;;;;3.20;2.30;;;7.90;99.90;;;;;;5055840;28;20543;-57
2022/04/08 11:50:48;;;;;;;1.83;1.50;;;7.90;99.90;;;;;;5061742;28;20468;-55
2022/04/08 11:53:17;;;;;;;2.50;1.90;;;7.90;99.90;;;;;;5060280;28;20452;-54
2022/04/08 11:55:54;;;;;;;1.87;1.73;;;7.90;99.90;;;;;;5058863;28;20456;-58
2022/04/08 11:58:21;;;;;;;4.07;2.00;;;7.80;99.90;;;;;;5054376;28;20477;-58
2022/04/08 12:00:50;;;;;;;1.73;1.63;;;7.90;99.90;;;;;;5061566;28;20462;-55
2022/04/08 12:03:24;;;;;;;1.90;1.50;;;8.00;99.90;;;;;;5058072;28;20460;-54
2022/04/08 12:05:52;;;;;;;1.93;1.73;;;8.00;99.90;;;;;;5053307;28;20827;-57
2022/04/08 12:08:21;;;;;;;1.60;1.50;;;8.00;99.90;;;;;;5057928;28;20493;-58
2022/04/08 12:10:53;;;;;;;3.33;1.83;;;7.90;99.90;;;;;;5061927;28;20878;-58
2022/04/08 12:13:24;;;;;;;2.30;2.10;;;8.20;99.90;;;;;;5059685;28;20461;-61
2022/04/08 12:15:55;;;;;;;2.37;2.17;;;8.20;99.90;;;;;;5060817;28;20461;-56
2022/04/08 12:18:25;;;;;;;2.83;2.43;;;8.30;99.90;;;;;;5058186;28;20477;-56
2022/04/08 12:20:54;;;;;;;3.97;2.93;;;8.40;99.90;;;;;;5060827;28;20467;-56
2022/04/08 12:23:22;;;;;;;2.20;1.90;;;8.10;99.90;;;;;;5060115;28;20453;-51
2022/04/08 12:25:53;;;;;;;2.60;2.40;;;8.10;99.90;;;;;;5052718;28;20465;-57
2022/04/08 12:28:23;;;;;;;2.73;2.33;;;8.00;99.90;;;;;;5061595;28;20542;-61
2022/04/08 12:30:51;;;;;;;1.90;1.80;;;7.90;99.90;;;;;;5059076;28;20911;-56
2022/04/08 12:33:20;;;;;;;2.40;2.20;;;7.70;99.90;;;;;;5054943;28;20869;-58
2022/04/08 12:35:54;;;;;;;1.97;1.73;;;7.90;99.90;;;;;;5055324;28;20461;-51
2022/04/08 12:38:22;;;;;;;2.90;2.70;;;7.90;99.90;;;;;;5054775;28;20475;-51
2022/04/08 12:40:51;;;;;;;2.20;1.87;;;7.90;99.90;;;;;;5059396;28;20826;-58
2022/04/08 12:43:18;;;;;;;2.40;2.20;;;7.90;99.90;;;;;;5059773;28;20453;-62
2022/04/08 12:45:46;;;;;;;2.57;2.17;;;8.00;99.90;;;;;;5062454;28;20464;-55
2022/04/08 12:48:13;;;;;;;2.27;2.17;;;8.10;99.90;;;;;;5058523;28;20496;-59
2022/04/08 12:50:40;;;;;;;2.30;2.20;;;8.20;99.90;;;;;;5058344;28;20458;-46
2022/04/08 12:53:08;;;;;;;2.30;2.10;;;8.20;99.90;;;;;;5064861;28;20507;-57
2022/04/08 12:55:36;;;;;;;2.63;2.43;;;8.30;99.90;;;;;;5058334;28;20465;-58
2022/04/08 12:58:03;;;;;;;2.03;1.93;;;8.00;99.90;;;;;;5057681;28;20476;-55
2022/04/08 13:00:30;;;;;;;2.17;2.07;;;8.00;99.90;;;;;;5062970;28;20878;-60
2022/04/08 13:02:57;;;;;;;3.53;2.73;;;8.00;99.90;;;;;;5060077;28;20576;-54